VIR155M EGLL-KLAS
Flight info
| Callsign | VIR155M |
|---|---|
| Flight time | N/A |
| Altitude | 40000 |
| Route | CPT L9 DIDZA N14 OKTAD DCT MEDOG DCT VATRY DCT RESNO/M086F400 DCT 5630N02000W 59N030W 5930N04000W 60N050W DCT RADUN/N0498F400 DCT SEMTO DCT KEMSA DCT 54N090W DCT KAIIN DCT SEGAP Q945 DIK DCT FBR DCT MLF DCT STEWW CHOWW4 |
| Aircraft | B789/H-SDE1E2E3FGHIJ2J3J4J5M1RWXY/LB1D1 |
Departure
| Time | 2026-05-04 08:43 |
|---|---|
| Airport | London Heathrow Airport (EGLL) |
Arrival
| Time | N/A |
|---|---|
| Airport | Harry Reid International Airport (KLAS) |
| Time | Latitude | Longitude | Altitude | Speed | Heading |
|---|---|---|---|---|---|
| 2026-05-04 08:14 | 51.47211 | -0.46256 | 91 ft | 0 kts | 56° |
| 2026-05-04 08:25 | 51.47211 | -0.46257 | 91 ft | 1 kts | 56° |
| 2026-05-04 08:25 | 51.47202 | -0.46278 | 95 ft | 3 kts | 56° |
| 2026-05-04 08:26 | 51.47191 | -0.46304 | 91 ft | 3 kts | 56° |
| 2026-05-04 08:27 | 51.47125 | -0.46298 | 92 ft | 0 kts | 326° |
| 2026-05-04 08:35 | 51.47200 | -0.46381 | 94 ft | 13 kts | 326° |
| 2026-05-04 08:35 | 51.47236 | -0.46506 | 92 ft | 12 kts | 273° |
| 2026-05-04 08:35 | 51.47234 | -0.46672 | 94 ft | 15 kts | 253° |
| 2026-05-04 08:35 | 51.47183 | -0.46723 | 92 ft | 8 kts | 182° |
| 2026-05-04 08:37 | 51.46750 | -0.46424 | 93 ft | 13 kts | 174° |
| 2026-05-04 08:37 | 51.46666 | -0.46383 | 92 ft | 10 kts | 115° |
| 2026-05-04 08:37 | 51.46659 | -0.46248 | 95 ft | 14 kts | 89° |
| 2026-05-04 08:38 | 51.46660 | -0.46058 | 93 ft | 20 kts | 89° |
| 2026-05-04 08:38 | 51.46661 | -0.45816 | 91 ft | 24 kts | 90° |
| 2026-05-04 08:38 | 51.46662 | -0.45522 | 91 ft | 28 kts | 90° |
| 2026-05-04 08:40 | 51.46668 | -0.43749 | 91 ft | 16 kts | 89° |
| 2026-05-04 08:40 | 51.46633 | -0.43615 | 94 ft | 11 kts | 158° |
| 2026-05-04 08:40 | 51.46557 | -0.43604 | 92 ft | 11 kts | 179° |
| 2026-05-04 08:41 | 51.46498 | -0.43649 | 91 ft | 8 kts | 246° |
| 2026-05-04 08:41 | 51.46495 | -0.43742 | 91 ft | 12 kts | 270° |
| 2026-05-04 08:41 | 51.46493 | -0.44085 | 91 ft | 53 kts | 270° |
| 2026-05-04 08:41 | 51.46489 | -0.44961 | 94 ft | 104 kts | 269° |
| 2026-05-04 08:42 | 51.46483 | -0.46380 | 97 ft | 149 kts | 270° |
| 2026-05-04 08:42 | 51.46478 | -0.48230 | 122 ft | 181 kts | 270° |
| 2026-05-04 08:42 | 51.46464 | -0.50067 | 619 ft | 165 kts | 269° |
| 2026-05-04 08:42 | 51.46418 | -0.52074 | 582 ft | 198 kts | 270° |
| 2026-05-04 08:43 | 51.46357 | -0.54285 | 1226 ft | 197 kts | 269° |
| 2026-05-04 08:43 | 51.46315 | -0.56529 | 1733 ft | 209 kts | 269° |
| 2026-05-04 08:43 | 51.46282 | -0.59042 | 1857 ft | 241 kts | 269° |